createdAt,value
2023-04-26T00:00:46.225Z,5.83
2023-04-26T00:03:15.090Z,5.71
2023-04-26T00:05:43.472Z,5.64
2023-04-26T00:08:11.482Z,5.59
2023-04-26T00:10:40.756Z,5.56
2023-04-26T00:13:08.605Z,5.53
2023-04-26T00:15:36.924Z,5.49
2023-04-26T00:18:04.980Z,5.51
2023-04-26T00:20:33.821Z,5.50
2023-04-26T00:23:01.639Z,5.52
2023-04-26T00:25:29.501Z,5.49
2023-04-26T00:27:57.346Z,5.50
2023-04-26T00:30:25.133Z,5.53
2023-04-26T00:32:53.232Z,5.48
2023-04-26T00:35:21.640Z,5.41
2023-04-26T00:37:49.491Z,5.40
2023-04-26T00:40:17.474Z,5.39
2023-04-26T00:42:45.728Z,5.43
2023-04-26T00:45:13.513Z,5.42
2023-04-26T00:47:41.744Z,5.43
2023-04-26T00:50:10.915Z,5.52
2023-04-26T00:52:39.769Z,5.61
2023-04-26T00:55:09.701Z,5.57
2023-04-26T00:57:39.623Z,5.53
2023-04-26T01:00:08.469Z,5.54
2023-04-26T01:02:37.781Z,5.49
2023-04-26T01:05:08.869Z,5.45
2023-04-26T01:07:41.478Z,5.44
2023-04-26T01:10:10.130Z,5.43
2023-04-26T01:12:39.441Z,5.37
2023-04-26T01:15:08.033Z,5.28
2023-04-26T01:17:37.821Z,5.23
2023-04-26T01:20:09.880Z,5.21
2023-04-26T01:22:37.702Z,5.19
2023-04-26T01:25:09.181Z,5.14
2023-04-26T01:27:39.939Z,5.07
2023-04-26T01:30:09.775Z,5.01
2023-04-26T01:32:37.697Z,4.99
2023-04-26T01:35:05.957Z,4.97
2023-04-26T01:37:33.838Z,4.93
2023-04-26T01:40:01.774Z,4.96
2023-04-26T01:42:30.347Z,4.99
2023-04-26T01:45:01.157Z,4.98
2023-04-26T01:47:49.021Z,4.92
2023-04-26T01:50:17.106Z,4.89
2023-04-26T01:52:44.955Z,4.85
2023-04-26T01:55:13.064Z,4.81
2023-04-26T01:57:40.871Z,4.76
2023-04-26T02:00:10.092Z,4.66
2023-04-26T02:02:44.009Z,4.57
2023-04-26T02:05:12.466Z,4.53
2023-04-26T02:07:40.442Z,4.50
2023-04-26T02:10:09.128Z,4.49
2023-04-26T02:12:37.104Z,4.47
2023-04-26T02:15:06.280Z,4.52
2023-04-26T02:17:37.764Z,4.54
2023-04-26T02:20:07.325Z,4.56
2023-04-26T02:22:35.086Z,4.60
2023-04-26T02:25:03.494Z,4.71
2023-04-26T02:27:31.747Z,4.67
2023-04-26T02:29:59.908Z,4.64
2023-04-26T02:32:27.878Z,4.62
2023-04-26T02:34:56.117Z,4.64
2023-04-26T02:37:23.977Z,4.71
2023-04-26T02:39:51.859Z,4.76
2023-04-26T02:42:19.666Z,4.80
2023-04-26T02:44:47.666Z,4.79
2023-04-26T02:47:16.656Z,4.77
2023-04-26T02:49:44.917Z,4.74
2023-04-26T02:52:12.673Z,4.69
2023-04-26T02:54:40.427Z,4.57
2023-04-26T02:57:08.405Z,4.50
2023-04-26T02:59:36.333Z,4.53
2023-04-26T03:02:04.211Z,4.57
2023-04-26T03:04:36.150Z,4.57
2023-04-26T03:07:04.780Z,4.61
2023-04-26T03:09:34.396Z,4.65
2023-04-26T03:12:03.281Z,4.69
2023-04-26T03:14:31.778Z,4.75
2023-04-26T03:17:00.632Z,4.77
2023-04-26T03:19:28.813Z,4.75
2023-04-26T03:21:56.988Z,4.66
2023-04-26T03:24:24.811Z,4.70
2023-04-26T03:26:52.727Z,4.79
2023-04-26T03:29:20.583Z,4.85
2023-04-26T03:31:48.346Z,4.90
2023-04-26T03:34:16.179Z,4.86
2023-04-26T03:36:44.176Z,4.93
2023-04-26T03:39:11.980Z,4.94
2023-04-26T03:41:40.524Z,4.98
2023-04-26T03:44:08.554Z,5.05
2023-04-26T03:46:36.596Z,5.09
2023-04-26T03:49:04.895Z,5.08
2023-04-26T03:51:32.862Z,5.11
2023-04-26T03:54:00.845Z,5.17
2023-04-26T03:56:29.051Z,5.28
2023-04-26T03:58:57.766Z,5.36
2023-04-26T04:01:26.208Z,5.40
2023-04-26T04:03:54.675Z,5.43
2023-04-26T04:06:22.712Z,5.33
2023-04-26T04:08:51.352Z,5.34
2023-04-26T04:11:19.397Z,5.26
2023-04-26T04:13:47.481Z,5.25
2023-04-26T04:16:15.453Z,5.18
2023-04-26T04:18:43.651Z,5.18
2023-04-26T04:21:11.999Z,5.25
2023-04-26T04:23:40.282Z,5.23
2023-04-26T04:26:12.582Z,5.24
2023-04-26T04:28:41.644Z,5.19
2023-04-26T04:31:09.918Z,5.25
2023-04-26T04:33:38.840Z,5.20
2023-04-26T04:36:08.343Z,5.16
2023-04-26T04:38:36.677Z,5.17
2023-04-26T04:41:05.986Z,5.20
2023-04-26T04:43:34.852Z,5.21
2023-04-26T04:46:02.861Z,5.25
2023-04-26T04:48:30.883Z,5.25
2023-04-26T04:50:58.673Z,5.26
2023-04-26T04:53:27.081Z,5.34
2023-04-26T04:55:54.864Z,5.32
2023-04-26T04:58:22.989Z,5.31
2023-04-26T05:00:52.534Z,5.41
2023-04-26T05:03:25.138Z,5.37
2023-04-26T05:05:53.310Z,5.30
2023-04-26T05:08:21.884Z,5.31
2023-04-26T05:10:50.092Z,5.29
2023-04-26T05:13:18.017Z,5.24
2023-04-26T05:15:45.893Z,5.28
2023-04-26T05:18:13.873Z,5.26
2023-04-26T05:20:42.397Z,5.24
2023-04-26T05:23:11.021Z,5.24
2023-04-26T05:25:39.232Z,5.22
2023-04-26T05:28:27.028Z,5.20
2023-04-26T05:31:12.170Z,5.21
2023-04-26T05:33:58.347Z,5.23
2023-04-26T05:36:32.844Z,5.32
2023-04-26T05:39:00.806Z,5.43
2023-04-26T05:41:28.623Z,5.53
2023-04-26T05:43:57.096Z,5.64
2023-04-26T05:46:25.075Z,5.79
2023-04-26T05:48:52.865Z,5.90
2023-04-26T05:51:21.600Z,6.00
2023-04-26T05:53:49.617Z,6.10
2023-04-26T05:56:18.019Z,6.26
2023-04-26T05:58:46.314Z,6.34
2023-04-26T06:01:14.916Z,6.41
2023-04-26T06:03:44.992Z,6.46
2023-04-26T06:06:13.553Z,6.51
2023-04-26T06:08:43.581Z,6.57
2023-04-26T06:11:12.306Z,6.68
2023-04-26T06:13:40.670Z,6.82
2023-04-26T06:16:09.352Z,6.94
2023-04-26T06:18:37.289Z,7.04
2023-04-26T06:21:05.854Z,7.17
2023-04-26T06:23:33.801Z,7.31
2023-04-26T06:26:01.876Z,7.52
2023-04-26T06:28:29.764Z,7.63
2023-04-26T06:30:58.068Z,7.72
2023-04-26T06:33:26.136Z,7.84
2023-04-26T06:35:53.986Z,7.96
2023-04-26T06:38:22.280Z,8.03
2023-04-26T06:40:52.098Z,8.16
2023-04-26T06:43:20.378Z,8.28
2023-04-26T06:45:59.903Z,8.42
2023-04-26T06:48:27.958Z,8.56
2023-04-26T06:50:56.485Z,8.64
2023-04-26T06:53:24.217Z,8.76
2023-04-26T06:55:53.403Z,8.84
2023-04-26T06:58:21.372Z,8.90
2023-04-26T07:00:49.231Z,8.93
2023-04-26T07:03:17.203Z,8.99
2023-04-26T07:05:45.227Z,9.02
2023-04-26T07:08:13.080Z,9.08
2023-04-26T07:10:42.002Z,9.27
2023-04-26T07:13:09.816Z,9.41
2023-04-26T07:15:37.676Z,9.51
2023-04-26T07:18:05.683Z,9.55
2023-04-26T07:20:33.476Z,9.68
2023-04-26T07:23:01.244Z,9.76
2023-04-26T07:25:28.984Z,9.86
2023-04-26T07:27:56.950Z,9.93
2023-04-26T07:30:26.024Z,10.01
2023-04-26T07:32:54.234Z,10.08
2023-04-26T07:35:22.084Z,10.19
2023-04-26T07:37:50.192Z,10.24
2023-04-26T07:40:18.814Z,10.28
2023-04-26T07:42:46.582Z,10.38
2023-04-26T07:45:14.620Z,10.41
2023-04-26T07:47:42.471Z,10.46
2023-04-26T07:50:11.294Z,10.53
2023-04-26T07:52:39.349Z,10.57
2023-04-26T07:55:08.304Z,10.61
2023-04-26T07:57:36.378Z,10.66
2023-04-26T08:00:10.212Z,10.70
2023-04-26T08:02:44.906Z,10.79
2023-04-26T08:05:14.604Z,10.93
2023-04-26T08:07:43.318Z,11.09
2023-04-26T08:10:11.527Z,11.17
2023-04-26T08:12:39.656Z,11.20
2023-04-26T08:15:08.274Z,11.29
2023-04-26T08:17:36.283Z,11.30
2023-04-26T08:20:07.432Z,11.29
2023-04-26T08:22:35.991Z,11.29
2023-04-26T08:25:04.738Z,11.20
2023-04-26T08:27:34.389Z,11.08
2023-04-26T08:30:02.361Z,11.01
2023-04-26T08:32:30.744Z,10.98
2023-04-26T08:34:58.787Z,11.02
2023-04-26T08:37:29.249Z,10.99
2023-04-26T08:39:57.482Z,10.91
2023-04-26T08:42:28.870Z,10.77
2023-04-26T08:45:02.364Z,10.73
2023-04-26T08:47:51.021Z,10.74
2023-04-26T08:50:23.931Z,10.77
2023-04-26T08:52:52.726Z,10.76
2023-04-26T08:55:21.505Z,10.79
2023-04-26T08:57:50.802Z,10.86
2023-04-26T09:00:19.687Z,10.85
2023-04-26T09:02:51.389Z,10.86
2023-04-26T09:05:24.854Z,10.91
2023-04-26T09:08:03.515Z,10.99
2023-04-26T09:10:32.436Z,11.06
2023-04-26T09:13:00.335Z,11.12
2023-04-26T09:15:28.178Z,11.16
2023-04-26T09:17:56.028Z,11.19
2023-04-26T09:20:30.052Z,11.24
2023-04-26T09:23:09.367Z,11.25
2023-04-26T09:25:38.011Z,11.27
2023-04-26T09:28:22.413Z,11.33
2023-04-26T09:30:50.654Z,11.42
2023-04-26T09:33:19.565Z,11.48
2023-04-26T09:35:47.515Z,11.58
2023-04-26T09:38:18.588Z,11.57
2023-04-26T09:40:50.031Z,11.60
2023-04-26T09:43:22.736Z,11.71
2023-04-26T09:45:58.088Z,11.75
2023-04-26T09:48:30.242Z,11.74
2023-04-26T09:51:09.393Z,11.75
2023-04-26T09:53:41.645Z,11.73
2023-04-26T09:56:15.689Z,11.74
2023-04-26T09:58:46.426Z,11.81
2023-04-26T10:01:20.579Z,11.95
2023-04-26T10:03:49.060Z,12.14
2023-04-26T10:06:17.141Z,12.33
2023-04-26T10:08:45.784Z,12.38
2023-04-26T10:11:14.221Z,12.42
2023-04-26T10:13:42.999Z,12.53
2023-04-26T10:16:11.760Z,12.77
2023-04-26T10:18:39.567Z,12.90
2023-04-26T10:21:20.063Z,13.01
2023-04-26T10:23:49.544Z,13.20
2023-04-26T10:26:56.974Z,13.23
2023-04-26T10:29:27.834Z,13.27
2023-04-26T10:32:04.617Z,13.30
2023-04-26T10:34:37.339Z,13.35
2023-04-26T10:37:16.923Z,13.48
2023-04-26T10:39:46.995Z,13.59
2023-04-26T10:42:30.436Z,13.61
2023-04-26T10:45:00.026Z,13.61
2023-04-26T10:47:34.408Z,13.72
2023-04-26T10:50:06.440Z,13.82
2023-04-26T10:53:04.328Z,13.98
2023-04-26T10:55:44.350Z,14.02
2023-04-26T10:58:29.225Z,14.11
2023-04-26T11:01:17.229Z,14.19
2023-04-26T11:03:57.961Z,14.21
2023-04-26T11:06:28.945Z,14.10
2023-04-26T11:08:56.746Z,14.03
2023-04-26T11:11:27.178Z,14.02
2023-04-26T11:13:56.361Z,13.99
2023-04-26T11:16:29.142Z,13.91
2023-04-26T11:18:57.129Z,13.98
2023-04-26T11:21:26.906Z,13.92
2023-04-26T11:23:55.611Z,13.90
2023-04-26T11:26:24.834Z,13.84
2023-04-26T11:28:55.699Z,13.82
2023-04-26T11:31:23.624Z,13.80
2023-04-26T11:33:51.434Z,13.70
2023-04-26T11:36:19.855Z,13.58
2023-04-26T11:38:47.692Z,13.39
2023-04-26T11:41:15.644Z,13.27
2023-04-26T11:43:43.468Z,13.09
2023-04-26T11:46:11.399Z,12.92
2023-04-26T11:48:41.373Z,13.03
2023-04-26T11:51:10.515Z,13.21
2023-04-26T11:53:41.075Z,13.34
2023-04-26T11:56:21.809Z,13.30
2023-04-26T11:58:53.620Z,13.11
2023-04-26T12:01:27.549Z,13.06
2023-04-26T12:03:58.649Z,13.02
2023-04-26T12:06:50.921Z,12.92
2023-04-26T12:09:30.994Z,12.91
2023-04-26T12:12:07.544Z,12.81
2023-04-26T12:14:38.345Z,12.71
2023-04-26T12:17:07.660Z,12.68
2023-04-26T12:19:40.891Z,12.64
2023-04-26T12:22:09.363Z,12.65
2023-04-26T12:24:37.916Z,12.71
2023-04-26T12:27:07.862Z,12.69
2023-04-26T12:29:36.031Z,12.66
2023-04-26T12:32:04.391Z,12.73
2023-04-26T12:34:32.404Z,12.81
2023-04-26T12:37:00.321Z,12.82
2023-04-26T12:39:28.370Z,12.88
2023-04-26T12:41:56.218Z,12.90
2023-04-26T12:44:23.967Z,12.94
2023-04-26T12:46:51.768Z,13.02
2023-04-26T12:49:19.558Z,13.07
2023-04-26T12:51:47.372Z,13.05
2023-04-26T12:54:15.199Z,13.06
2023-04-26T12:56:44.538Z,13.13
2023-04-26T12:59:12.480Z,13.19
2023-04-26T13:01:40.924Z,13.31
2023-04-26T13:04:10.231Z,13.40
2023-04-26T13:06:38.512Z,13.44
2023-04-26T13:09:08.148Z,13.45
2023-04-26T13:11:36.014Z,13.39
2023-04-26T13:14:04.038Z,13.43
2023-04-26T13:16:35.827Z,13.42
2023-04-26T13:19:03.706Z,13.40
2023-04-26T13:21:31.498Z,13.33
2023-04-26T13:23:59.228Z,13.31
2023-04-26T13:26:27.925Z,13.31
2023-04-26T13:28:55.955Z,13.23
2023-04-26T13:31:23.766Z,13.17
2023-04-26T13:33:51.747Z,13.18
2023-04-26T13:36:19.606Z,13.22
2023-04-26T13:38:47.585Z,13.18
2023-04-26T13:41:15.725Z,13.16
2023-04-26T13:43:43.564Z,13.19
2023-04-26T13:46:11.545Z,13.23
2023-04-26T13:48:39.365Z,13.23
2023-04-26T13:51:07.338Z,13.28
2023-04-26T13:53:35.168Z,13.25
2023-04-26T13:56:03.100Z,13.22
2023-04-26T13:58:30.937Z,13.26
2023-04-26T14:00:58.684Z,13.22
2023-04-26T14:03:27.045Z,13.13
2023-04-26T14:05:56.519Z,13.10
2023-04-26T14:08:24.354Z,13.09
2023-04-26T14:10:53.064Z,13.08
2023-04-26T14:13:21.061Z,13.07
2023-04-26T14:15:49.561Z,13.12
2023-04-26T14:18:17.700Z,13.13
2023-04-26T14:20:46.657Z,13.19
2023-04-26T14:23:14.500Z,13.25
2023-04-26T14:25:42.775Z,13.28
2023-04-26T14:28:10.693Z,13.30
2023-04-26T14:30:38.624Z,13.39
2023-04-26T14:33:06.695Z,13.43
2023-04-26T14:35:34.564Z,13.32
2023-04-26T14:38:02.472Z,13.15
2023-04-26T14:40:30.455Z,13.15
2023-04-26T14:42:58.384Z,13.16
2023-04-26T14:45:33.540Z,13.18
2023-04-26T14:48:12.456Z,13.19
2023-04-26T14:50:40.702Z,13.19
2023-04-26T14:53:09.779Z,13.24
2023-04-26T14:55:37.643Z,13.22
2023-04-26T14:58:05.677Z,13.15
2023-04-26T15:00:33.449Z,13.12
2023-04-26T15:03:01.563Z,13.07
2023-04-26T15:05:29.579Z,13.04
2023-04-26T15:07:57.350Z,13.05
2023-04-26T15:10:25.127Z,13.13
2023-04-26T15:12:52.880Z,13.16
2023-04-26T15:15:20.713Z,13.07
2023-04-26T15:17:48.939Z,12.98
2023-04-26T15:20:17.316Z,12.96
2023-04-26T15:22:45.566Z,12.93
2023-04-26T15:25:13.506Z,12.89
2023-04-26T15:27:41.363Z,12.85
2023-04-26T15:30:09.724Z,12.85
2023-04-26T15:32:37.522Z,12.89
2023-04-26T15:35:07.359Z,12.90
2023-04-26T15:37:37.886Z,12.90
2023-04-26T15:40:09.176Z,12.92
2023-04-26T15:42:36.904Z,12.95
2023-04-26T15:45:05.794Z,12.93
2023-04-26T15:47:36.548Z,12.89
2023-04-26T15:50:05.548Z,12.86
2023-04-26T15:52:39.206Z,12.81
2023-04-26T15:55:07.676Z,12.83
2023-04-26T15:57:35.851Z,12.88
2023-04-26T16:00:08.030Z,12.93
2023-04-26T16:02:36.728Z,12.90
2023-04-26T16:05:05.357Z,12.90
2023-04-26T16:07:33.291Z,12.97
2023-04-26T16:10:01.381Z,12.98
2023-04-26T16:12:29.252Z,12.98
2023-04-26T16:14:58.192Z,13.04
2023-04-26T16:17:26.025Z,13.15
2023-04-26T16:19:54.197Z,13.25
2023-04-26T16:22:22.037Z,13.31
2023-04-26T16:24:49.863Z,13.33
2023-04-26T16:27:18.017Z,13.36
2023-04-26T16:29:47.507Z,13.34
2023-04-26T16:32:15.636Z,13.34
2023-04-26T16:34:43.569Z,13.39
2023-04-26T16:37:11.385Z,13.43
2023-04-26T16:39:39.270Z,13.35
2023-04-26T16:42:07.252Z,13.28
2023-04-26T16:44:35.085Z,13.22
2023-04-26T16:47:02.858Z,13.20
2023-04-26T16:49:30.672Z,13.19
2023-04-26T16:51:59.395Z,13.17
2023-04-26T16:54:27.690Z,13.13
2023-04-26T16:56:56.125Z,13.12
2023-04-26T16:59:23.981Z,13.11
2023-04-26T17:01:52.322Z,13.06
2023-04-26T17:04:20.336Z,13.05
2023-04-26T17:06:48.412Z,12.98
2023-04-26T17:09:16.625Z,12.94
2023-04-26T17:11:44.864Z,12.90
2023-04-26T17:14:12.632Z,12.81
2023-04-26T17:16:40.601Z,12.78
2023-04-26T17:19:08.414Z,12.76
2023-04-26T17:21:36.334Z,12.69
2023-04-26T17:24:04.476Z,12.64
2023-04-26T17:26:32.240Z,12.59
2023-04-26T17:29:00.124Z,12.51
2023-04-26T17:31:28.410Z,12.45
2023-04-26T17:33:56.540Z,12.37
2023-04-26T17:36:24.424Z,12.34
2023-04-26T17:38:52.543Z,12.29
2023-04-26T17:41:22.257Z,12.30
2023-04-26T17:43:50.289Z,12.25
2023-04-26T17:46:18.190Z,12.18
2023-04-26T17:48:46.132Z,12.12
2023-04-26T17:51:14.146Z,12.05
2023-04-26T17:53:42.313Z,11.97
2023-04-26T17:56:10.577Z,11.95
2023-04-26T17:58:38.424Z,11.90
2023-04-26T18:01:06.258Z,11.86
2023-04-26T18:03:35.750Z,11.80
2023-04-26T18:06:04.486Z,11.76
2023-04-26T18:08:32.425Z,11.68
2023-04-26T18:11:00.646Z,11.56
2023-04-26T18:13:28.552Z,11.44
2023-04-26T18:15:57.200Z,11.37
2023-04-26T18:18:27.714Z,11.35
2023-04-26T18:20:55.833Z,11.30
2023-04-26T18:23:23.674Z,11.20
2023-04-26T18:25:51.953Z,11.16
2023-04-26T18:28:19.788Z,11.13
2023-04-26T18:30:47.663Z,11.10
2023-04-26T18:33:15.748Z,11.07
2023-04-26T18:35:43.593Z,11.05
2023-04-26T18:38:11.400Z,11.00
2023-04-26T18:40:44.002Z,10.95
2023-04-26T18:43:12.413Z,10.90
2023-04-26T18:45:41.550Z,10.81
2023-04-26T18:48:10.096Z,10.75
2023-04-26T18:50:38.077Z,10.73
2023-04-26T18:53:05.957Z,10.73
2023-04-26T18:55:33.800Z,10.71
2023-04-26T18:58:02.163Z,10.66
2023-04-26T19:00:30.356Z,10.64
2023-04-26T19:02:58.586Z,10.61
2023-04-26T19:05:27.272Z,10.64
2023-04-26T19:07:56.101Z,10.59
2023-04-26T19:10:24.816Z,10.52
2023-04-26T19:12:53.653Z,10.49
2023-04-26T19:15:21.991Z,10.48
2023-04-26T19:17:50.605Z,10.44
2023-04-26T19:20:20.174Z,10.39
2023-04-26T19:22:48.048Z,10.35
2023-04-26T19:25:20.359Z,10.35
2023-04-26T19:27:48.810Z,10.34
2023-04-26T19:30:16.652Z,10.25
2023-04-26T19:32:44.546Z,10.18
2023-04-26T19:35:12.434Z,10.16
2023-04-26T19:37:41.054Z,10.14
2023-04-26T19:40:10.187Z,10.10
2023-04-26T19:42:37.940Z,10.06
2023-04-26T19:45:07.003Z,10.06
2023-04-26T19:47:35.101Z,10.04
2023-04-26T19:50:04.113Z,10.00
2023-04-26T19:52:32.175Z,9.96
2023-04-26T19:55:00.267Z,9.90
2023-04-26T19:57:28.072Z,9.85
2023-04-26T19:59:55.864Z,9.80
2023-04-26T20:02:23.785Z,9.72
2023-04-26T20:04:52.486Z,9.68
2023-04-26T20:07:20.237Z,9.66
2023-04-26T20:09:48.097Z,9.66
2023-04-26T20:12:16.172Z,9.59
2023-04-26T20:14:44.076Z,9.55
2023-04-26T20:17:11.878Z,9.50
2023-04-26T20:19:39.966Z,9.52
2023-04-26T20:22:07.772Z,9.48
2023-04-26T20:24:35.707Z,9.48
2023-04-26T20:27:03.984Z,9.49
2023-04-26T20:29:31.972Z,9.49
2023-04-26T20:31:59.825Z,9.46
2023-04-26T20:34:27.874Z,9.40
2023-04-26T20:36:56.066Z,9.40
2023-04-26T20:39:23.955Z,9.38
2023-04-26T20:41:52.334Z,9.35
2023-04-26T20:44:20.170Z,9.32
2023-04-26T20:46:48.051Z,9.37
2023-04-26T20:49:16.323Z,9.42
2023-04-26T20:51:45.492Z,9.47
2023-04-26T20:54:14.202Z,9.47
2023-04-26T20:56:42.989Z,9.41
2023-04-26T20:59:11.789Z,9.43
2023-04-26T21:01:39.930Z,9.46
2023-04-26T21:04:07.912Z,9.43
2023-04-26T21:06:35.997Z,9.39
2023-04-26T21:09:05.271Z,9.39
2023-04-26T21:11:33.153Z,9.39
2023-04-26T21:14:00.999Z,9.35
2023-04-26T21:16:29.149Z,9.37
2023-04-26T21:18:57.077Z,9.40
2023-04-26T21:21:26.412Z,9.38
2023-04-26T21:23:56.228Z,9.32
2023-04-26T21:26:24.105Z,9.28
2023-04-26T21:28:51.986Z,9.33
2023-04-26T21:31:19.790Z,9.31
2023-04-26T21:33:47.636Z,9.34
2023-04-26T21:36:16.343Z,9.31
2023-04-26T21:38:44.620Z,9.28
2023-04-26T21:41:12.542Z,9.34
2023-04-26T21:43:40.494Z,9.33
2023-04-26T21:46:08.438Z,9.38
2023-04-26T21:48:38.751Z,9.38
2023-04-26T21:51:06.530Z,9.38
2023-04-26T21:53:34.388Z,9.43
2023-04-26T21:56:02.521Z,9.44
2023-04-26T21:58:30.349Z,9.40
2023-04-26T22:01:11.457Z,9.34
2023-04-26T22:03:39.865Z,9.31
2023-04-26T22:06:09.772Z,9.27
2023-04-26T22:08:38.607Z,9.31
2023-04-26T22:11:06.437Z,9.33
2023-04-26T22:13:34.274Z,9.32
2023-04-26T22:16:02.210Z,9.33
2023-04-26T22:18:30.468Z,9.30
2023-04-26T22:20:58.380Z,9.28
2023-04-26T22:23:26.239Z,9.27
2023-04-26T22:25:54.203Z,9.35
2023-04-26T22:28:22.028Z,9.41
2023-04-26T22:30:49.785Z,9.38
2023-04-26T22:33:17.960Z,9.32
2023-04-26T22:35:45.773Z,9.27
2023-04-26T22:38:13.528Z,9.21
2023-04-26T22:40:42.267Z,9.16
2023-04-26T22:43:10.099Z,9.11
2023-04-26T22:45:37.931Z,9.01
2023-04-26T22:48:06.331Z,8.96
2023-04-26T22:50:34.269Z,8.91
2023-04-26T22:53:02.154Z,8.88
2023-04-26T22:55:29.928Z,8.83
2023-04-26T22:57:57.837Z,8.76
2023-04-26T23:00:26.011Z,8.66
2023-04-26T23:02:54.125Z,8.56
2023-04-26T23:05:22.153Z,8.55
2023-04-26T23:07:50.112Z,8.51
2023-04-26T23:10:18.111Z,8.51
2023-04-26T23:12:45.961Z,8.44
2023-04-26T23:15:13.728Z,8.29
2023-04-26T23:17:41.965Z,8.17
2023-04-26T23:20:13.251Z,8.02
2023-04-26T23:22:42.949Z,7.90
2023-04-26T23:25:10.799Z,7.76
2023-04-26T23:27:39.027Z,7.66
2023-04-26T23:30:08.089Z,7.62
2023-04-26T23:32:35.901Z,7.55
2023-04-26T23:35:04.517Z,7.45
2023-04-26T23:37:32.843Z,7.36
2023-04-26T23:40:00.990Z,7.27
2023-04-26T23:42:28.856Z,7.16
2023-04-26T23:44:56.725Z,7.12
2023-04-26T23:47:24.976Z,7.04
2023-04-26T23:49:53.111Z,7.00
2023-04-26T23:52:21.032Z,6.93
2023-04-26T23:54:48.991Z,6.89
2023-04-26T23:57:16.764Z,6.86
2023-04-26T23:59:44.895Z,6.83
